sensor_id;sensor_type;location;lat;lon;timestamp;temperature;humidity
8103;DHT22;4094;49.948;11.574;2023-07-31T00:00:20;18.90;67.00
8103;DHT22;4094;49.948;11.574;2023-07-31T00:02:51;18.90;67.20
8103;DHT22;4094;49.948;11.574;2023-07-31T00:05:23;18.80;67.10
8103;DHT22;4094;49.948;11.574;2023-07-31T00:07:54;18.80;67.10
8103;DHT22;4094;49.948;11.574;2023-07-31T00:10:24;18.80;67.20
8103;DHT22;4094;49.948;11.574;2023-07-31T00:12:54;18.80;67.20
8103;DHT22;4094;49.948;11.574;2023-07-31T00:15:24;18.80;67.40
8103;DHT22;4094;49.948;11.574;2023-07-31T00:17:54;18.80;67.10
8103;DHT22;4094;49.948;11.574;2023-07-31T00:20:23;18.80;67.10
8103;DHT22;4094;49.948;11.574;2023-07-31T00:22:52;18.80;67.20
8103;DHT22;4094;49.948;11.574;2023-07-31T00:25:22;18.80;67.00
8103;DHT22;4094;49.948;11.574;2023-07-31T00:27:51;18.80;67.00
8103;DHT22;4094;49.948;11.574;2023-07-31T00:30:23;18.80;67.00
8103;DHT22;4094;49.948;11.574;2023-07-31T00:32:54;18.80;67.10
8103;DHT22;4094;49.948;11.574;2023-07-31T00:35:23;18.80;67.00
8103;DHT22;4094;49.948;11.574;2023-07-31T00:37:53;18.80;67.20
8103;DHT22;4094;49.948;11.574;2023-07-31T00:40:22;18.80;67.30
8103;DHT22;4094;49.948;11.574;2023-07-31T00:42:51;18.80;67.30
8103;DHT22;4094;49.948;11.574;2023-07-31T00:45:23;18.80;67.00
8103;DHT22;4094;49.948;11.574;2023-07-31T00:47:55;18.80;67.20
8103;DHT22;4094;49.948;11.574;2023-07-31T00:50:25;18.80;67.30
8103;DHT22;4094;49.948;11.574;2023-07-31T00:52:54;18.80;67.20
8103;DHT22;4094;49.948;11.574;2023-07-31T00:55:23;18.80;67.10
8103;DHT22;4094;49.948;11.574;2023-07-31T00:57:53;18.80;66.50
8103;DHT22;4094;49.948;11.574;2023-07-31T01:00:25;18.80;66.00
8103;DHT22;4094;49.948;11.574;2023-07-31T01:02:54;18.80;66.10
8103;DHT22;4094;49.948;11.574;2023-07-31T01:05:31;18.80;66.20
8103;DHT22;4094;49.948;11.574;2023-07-31T01:08:09;18.80;66.60
8103;DHT22;4094;49.948;11.574;2023-07-31T01:10:46;18.80;67.00
8103;DHT22;4094;49.948;11.574;2023-07-31T01:13:19;18.80;67.10
8103;DHT22;4094;49.948;11.574;2023-07-31T01:15:50;18.80;67.30
8103;DHT22;4094;49.948;11.574;2023-07-31T01:18:19;18.90;67.40
8103;DHT22;4094;49.948;11.574;2023-07-31T01:20:54;18.90;67.30
8103;DHT22;4094;49.948;11.574;2023-07-31T01:23:39;18.90;68.00
8103;DHT22;4094;49.948;11.574;2023-07-31T01:26:18;18.90;67.90
8103;DHT22;4094;49.948;11.574;2023-07-31T01:28:54;18.90;67.60
8103;DHT22;4094;49.948;11.574;2023-07-31T01:31:25;18.90;67.20
8103;DHT22;4094;49.948;11.574;2023-07-31T01:33:59;18.90;66.70
8103;DHT22;4094;49.948;11.574;2023-07-31T01:36:30;18.90;66.70
8103;DHT22;4094;49.948;11.574;2023-07-31T01:39:00;18.90;66.70
8103;DHT22;4094;49.948;11.574;2023-07-31T01:41:32;18.90;66.40
8103;DHT22;4094;49.948;11.574;2023-07-31T01:44:01;18.90;66.20
8103;DHT22;4094;49.948;11.574;2023-07-31T01:46:30;18.90;66.20
8103;DHT22;4094;49.948;11.574;2023-07-31T01:48:59;18.90;65.80
8103;DHT22;4094;49.948;11.574;2023-07-31T01:51:28;18.90;66.10
8103;DHT22;4094;49.948;11.574;2023-07-31T01:53:57;18.90;66.00
8103;DHT22;4094;49.948;11.574;2023-07-31T01:56:26;18.90;66.30
8103;DHT22;4094;49.948;11.574;2023-07-31T01:58:56;19.00;66.20
8103;DHT22;4094;49.948;11.574;2023-07-31T02:01:25;18.90;65.70
8103;DHT22;4094;49.948;11.574;2023-07-31T02:03:55;19.00;66.20
8103;DHT22;4094;49.948;11.574;2023-07-31T02:06:24;19.00;66.10
8103;DHT22;4094;49.948;11.574;2023-07-31T02:08:53;19.00;65.80
8103;DHT22;4094;49.948;11.574;2023-07-31T02:11:22;19.00;66.10
8103;DHT22;4094;49.948;11.574;2023-07-31T02:13:51;19.00;66.40
8103;DHT22;4094;49.948;11.574;2023-07-31T02:16:21;19.00;66.00
8103;DHT22;4094;49.948;11.574;2023-07-31T02:18:51;19.00;67.00
8103;DHT22;4094;49.948;11.574;2023-07-31T02:21:20;19.00;66.60
8103;DHT22;4094;49.948;11.574;2023-07-31T02:23:49;19.00;66.70
8103;DHT22;4094;49.948;11.574;2023-07-31T02:26:19;19.10;67.10
8103;DHT22;4094;49.948;11.574;2023-07-31T02:28:48;19.10;67.20
8103;DHT22;4094;49.948;11.574;2023-07-31T02:31:17;19.10;67.30
8103;DHT22;4094;49.948;11.574;2023-07-31T02:33:51;19.10;67.30
8103;DHT22;4094;49.948;11.574;2023-07-31T02:36:20;19.10;67.40
8103;DHT22;4094;49.948;11.574;2023-07-31T02:38:49;19.10;67.80
8103;DHT22;4094;49.948;11.574;2023-07-31T02:41:18;19.10;68.10
8103;DHT22;4094;49.948;11.574;2023-07-31T02:43:48;19.10;68.20
8103;DHT22;4094;49.948;11.574;2023-07-31T02:46:17;19.10;67.90
8103;DHT22;4094;49.948;11.574;2023-07-31T02:48:46;19.00;68.10
8103;DHT22;4094;49.948;11.574;2023-07-31T02:51:17;19.10;68.30
8103;DHT22;4094;49.948;11.574;2023-07-31T02:53:46;19.10;68.50
8103;DHT22;4094;49.948;11.574;2023-07-31T02:56:15;19.10;68.40
8103;DHT22;4094;49.948;11.574;2023-07-31T02:58:45;19.10;68.70
8103;DHT22;4094;49.948;11.574;2023-07-31T03:01:14;19.10;68.70
8103;DHT22;4094;49.948;11.574;2023-07-31T03:03:44;19.10;68.70
8103;DHT22;4094;49.948;11.574;2023-07-31T03:06:13;19.10;68.90
8103;DHT22;4094;49.948;11.574;2023-07-31T03:08:43;19.10;69.00
8103;DHT22;4094;49.948;11.574;2023-07-31T03:11:12;19.10;69.10
8103;DHT22;4094;49.948;11.574;2023-07-31T03:13:43;19.10;69.10
8103;DHT22;4094;49.948;11.574;2023-07-31T03:16:12;19.10;69.20
8103;DHT22;4094;49.948;11.574;2023-07-31T03:18:41;19.10;69.30
8103;DHT22;4094;49.948;11.574;2023-07-31T03:21:11;19.20;70.20
8103;DHT22;4094;49.948;11.574;2023-07-31T03:23:41;19.20;69.70
8103;DHT22;4094;49.948;11.574;2023-07-31T03:26:12;19.20;69.50
8103;DHT22;4094;49.948;11.574;2023-07-31T03:28:42;19.20;69.60
8103;DHT22;4094;49.948;11.574;2023-07-31T03:31:11;19.20;69.20
8103;DHT22;4094;49.948;11.574;2023-07-31T03:33:41;19.30;68.80
8103;DHT22;4094;49.948;11.574;2023-07-31T03:36:10;19.30;68.50
8103;DHT22;4094;49.948;11.574;2023-07-31T03:38:39;19.30;68.20
8103;DHT22;4094;49.948;11.574;2023-07-31T03:41:08;19.30;68.00
8103;DHT22;4094;49.948;11.574;2023-07-31T03:43:40;19.40;67.70
8103;DHT22;4094;49.948;11.574;2023-07-31T03:46:09;19.40;67.70
8103;DHT22;4094;49.948;11.574;2023-07-31T03:48:38;19.40;67.50
8103;DHT22;4094;49.948;11.574;2023-07-31T03:51:08;19.50;66.90
8103;DHT22;4094;49.948;11.574;2023-07-31T03:53:37;19.50;66.90
8103;DHT22;4094;49.948;11.574;2023-07-31T03:56:06;19.60;66.70
8103;DHT22;4094;49.948;11.574;2023-07-31T03:58:35;19.60;66.50
8103;DHT22;4094;49.948;11.574;2023-07-31T04:01:06;19.60;66.10
8103;DHT22;4094;49.948;11.574;2023-07-31T04:03:35;19.60;65.40
8103;DHT22;4094;49.948;11.574;2023-07-31T04:06:04;19.60;65.80
8103;DHT22;4094;49.948;11.574;2023-07-31T04:08:34;19.70;65.70
8103;DHT22;4094;49.948;11.574;2023-07-31T04:11:03;19.70;65.60
8103;DHT22;4094;49.948;11.574;2023-07-31T04:13:33;19.70;65.30
8103;DHT22;4094;49.948;11.574;2023-07-31T04:16:02;19.80;65.40
8103;DHT22;4094;49.948;11.574;2023-07-31T04:18:34;19.80;65.20
8103;DHT22;4094;49.948;11.574;2023-07-31T04:21:03;19.80;64.70
8103;DHT22;4094;49.948;11.574;2023-07-31T04:23:33;19.80;64.70
8103;DHT22;4094;49.948;11.574;2023-07-31T04:26:02;19.90;65.00
8103;DHT22;4094;49.948;11.574;2023-07-31T04:28:31;19.90;65.00
8103;DHT22;4094;49.948;11.574;2023-07-31T04:31:01;19.90;64.40
8103;DHT22;4094;49.948;11.574;2023-07-31T04:33:30;19.90;64.30
8103;DHT22;4094;49.948;11.574;2023-07-31T04:36:00;19.90;64.20
8103;DHT22;4094;49.948;11.574;2023-07-31T04:38:30;19.90;63.90
8103;DHT22;4094;49.948;11.574;2023-07-31T04:40:59;19.90;63.60
8103;DHT22;4094;49.948;11.574;2023-07-31T04:43:28;19.90;63.70
8103;DHT22;4094;49.948;11.574;2023-07-31T04:45:58;19.90;64.30
8103;DHT22;4094;49.948;11.574;2023-07-31T04:48:27;20.00;64.20
8103;DHT22;4094;49.948;11.574;2023-07-31T04:50:56;20.00;64.00
8103;DHT22;4094;49.948;11.574;2023-07-31T04:53:27;20.00;64.10
8103;DHT22;4094;49.948;11.574;2023-07-31T04:55:56;20.00;64.00
8103;DHT22;4094;49.948;11.574;2023-07-31T04:58:25;20.10;64.10
8103;DHT22;4094;49.948;11.574;2023-07-31T05:00:54;20.10;63.30
8103;DHT22;4094;49.948;11.574;2023-07-31T05:03:24;20.10;62.90
8103;DHT22;4094;49.948;11.574;2023-07-31T05:05:53;20.10;63.00
8103;DHT22;4094;49.948;11.574;2023-07-31T05:08:22;20.10;63.30
8103;DHT22;4094;49.948;11.574;2023-07-31T05:10:53;20.10;63.50
8103;DHT22;4094;49.948;11.574;2023-07-31T05:13:22;20.10;62.60
8103;DHT22;4094;49.948;11.574;2023-07-31T05:15:52;20.10;62.80
8103;DHT22;4094;49.948;11.574;2023-07-31T05:18:21;20.10;63.00
8103;DHT22;4094;49.948;11.574;2023-07-31T05:20:51;20.10;63.00
8103;DHT22;4094;49.948;11.574;2023-07-31T05:23:20;20.20;63.00
8103;DHT22;4094;49.948;11.574;2023-07-31T05:25:49;20.20;63.00
8103;DHT22;4094;49.948;11.574;2023-07-31T05:28:21;20.20;63.00
8103;DHT22;4094;49.948;11.574;2023-07-31T05:30:50;20.20;63.30
8103;DHT22;4094;49.948;11.574;2023-07-31T05:33:19;20.20;63.60
8103;DHT22;4094;49.948;11.574;2023-07-31T05:35:49;20.20;63.40
8103;DHT22;4094;49.948;11.574;2023-07-31T05:38:18;20.20;63.40
8103;DHT22;4094;49.948;11.574;2023-07-31T05:40:47;20.20;63.20
8103;DHT22;4094;49.948;11.574;2023-07-31T05:43:16;20.20;63.50
8103;DHT22;4094;49.948;11.574;2023-07-31T05:45:47;20.30;63.70
8103;DHT22;4094;49.948;11.574;2023-07-31T05:48:16;20.30;63.10
8103;DHT22;4094;49.948;11.574;2023-07-31T05:50:45;20.30;62.50
8103;DHT22;4094;49.948;11.574;2023-07-31T05:53:15;20.30;62.30
8103;DHT22;4094;49.948;11.574;2023-07-31T05:55:44;20.30;62.20
8103;DHT22;4094;49.948;11.574;2023-07-31T05:58:13;20.20;62.10
8103;DHT22;4094;49.948;11.574;2023-07-31T06:00:42;20.30;62.10
8103;DHT22;4094;49.948;11.574;2023-07-31T06:03:13;20.30;62.30
8103;DHT22;4094;49.948;11.574;2023-07-31T06:05:42;20.30;62.10
8103;DHT22;4094;49.948;11.574;2023-07-31T06:08:11;20.30;62.30
8103;DHT22;4094;49.948;11.574;2023-07-31T06:10:40;20.30;62.40
8103;DHT22;4094;49.948;11.574;2023-07-31T06:13:09;20.30;62.20
8103;DHT22;4094;49.948;11.574;2023-07-31T06:15:38;20.30;62.30
8103;DHT22;4094;49.948;11.574;2023-07-31T06:18:08;20.40;62.30
8103;DHT22;4094;49.948;11.574;2023-07-31T06:20:39;20.40;62.00
8103;DHT22;4094;49.948;11.574;2023-07-31T06:23:09;20.40;61.80
8103;DHT22;4094;49.948;11.574;2023-07-31T06:25:38;20.40;61.80
8103;DHT22;4094;49.948;11.574;2023-07-31T06:28:07;20.40;61.90
8103;DHT22;4094;49.948;11.574;2023-07-31T06:30:36;20.40;62.00
8103;DHT22;4094;49.948;11.574;2023-07-31T06:33:06;20.50;62.10
8103;DHT22;4094;49.948;11.574;2023-07-31T06:35:38;20.50;62.20
8103;DHT22;4094;49.948;11.574;2023-07-31T06:38:08;20.50;61.70
8103;DHT22;4094;49.948;11.574;2023-07-31T06:40:37;20.50;61.20
8103;DHT22;4094;49.948;11.574;2023-07-31T06:43:06;20.50;61.50
8103;DHT22;4094;49.948;11.574;2023-07-31T06:45:36;20.50;62.30
8103;DHT22;4094;49.948;11.574;2023-07-31T06:48:05;20.60;62.20
8103;DHT22;4094;49.948;11.574;2023-07-31T06:50:35;20.60;61.70
8103;DHT22;4094;49.948;11.574;2023-07-31T06:53:06;20.60;61.20
8103;DHT22;4094;49.948;11.574;2023-07-31T06:55:35;20.60;61.60
8103;DHT22;4094;49.948;11.574;2023-07-31T06:58:05;20.60;61.30
8103;DHT22;4094;49.948;11.574;2023-07-31T07:00:34;20.70;60.90
8103;DHT22;4094;49.948;11.574;2023-07-31T07:03:03;20.70;60.70
8103;DHT22;4094;49.948;11.574;2023-07-31T07:05:32;20.70;61.00
8103;DHT22;4094;49.948;11.574;2023-07-31T07:08:01;20.70;60.90
8103;DHT22;4094;49.948;11.574;2023-07-31T07:10:32;20.70;61.00
8103;DHT22;4094;49.948;11.574;2023-07-31T07:13:01;20.70;60.90
8103;DHT22;4094;49.948;11.574;2023-07-31T07:15:30;20.70;60.90
8103;DHT22;4094;49.948;11.574;2023-07-31T07:17:59;20.70;61.00
8103;DHT22;4094;49.948;11.574;2023-07-31T07:20:29;20.70;61.00
8103;DHT22;4094;49.948;11.574;2023-07-31T07:22:58;20.70;61.00
8103;DHT22;4094;49.948;11.574;2023-07-31T07:25:28;20.70;61.20
8103;DHT22;4094;49.948;11.574;2023-07-31T07:27:58;20.70;60.90
8103;DHT22;4094;49.948;11.574;2023-07-31T07:30:28;20.80;60.80
8103;DHT22;4094;49.948;11.574;2023-07-31T07:32:57;20.80;60.50
8103;DHT22;4094;49.948;11.574;2023-07-31T07:35:27;20.80;60.80
8103;DHT22;4094;49.948;11.574;2023-07-31T07:37:56;20.80;61.00
8103;DHT22;4094;49.948;11.574;2023-07-31T07:40:26;20.80;61.10
8103;DHT22;4094;49.948;11.574;2023-07-31T07:42:55;20.80;61.50
8103;DHT22;4094;49.948;11.574;2023-07-31T07:45:25;20.80;61.50
8103;DHT22;4094;49.948;11.574;2023-07-31T07:47:55;20.90;61.10
8103;DHT22;4094;49.948;11.574;2023-07-31T07:50:24;20.90;61.10
8103;DHT22;4094;49.948;11.574;2023-07-31T07:52:53;20.90;61.10
8103;DHT22;4094;49.948;11.574;2023-07-31T07:55:23;20.90;60.80
8103;DHT22;4094;49.948;11.574;2023-07-31T07:57:52;21.00;60.70
8103;DHT22;4094;49.948;11.574;2023-07-31T08:00:21;21.00;61.00
8103;DHT22;4094;49.948;11.574;2023-07-31T08:02:52;21.00;60.90
8103;DHT22;4094;49.948;11.574;2023-07-31T08:05:21;21.00;60.10
8103;DHT22;4094;49.948;11.574;2023-07-31T08:07:50;21.00;60.10
8103;DHT22;4094;49.948;11.574;2023-07-31T08:10:20;21.00;60.10
8103;DHT22;4094;49.948;11.574;2023-07-31T08:12:50;21.00;60.40
8103;DHT22;4094;49.948;11.574;2023-07-31T08:15:19;21.10;60.30
8103;DHT22;4094;49.948;11.574;2023-07-31T08:17:49;21.10;60.00
8103;DHT22;4094;49.948;11.574;2023-07-31T08:20:19;21.10;60.30
8103;DHT22;4094;49.948;11.574;2023-07-31T08:22:49;21.10;60.10
8103;DHT22;4094;49.948;11.574;2023-07-31T08:25:18;21.20;60.80
8103;DHT22;4094;49.948;11.574;2023-07-31T08:27:47;21.20;61.00
8103;DHT22;4094;49.948;11.574;2023-07-31T08:30:16;21.30;59.90
8103;DHT22;4094;49.948;11.574;2023-07-31T08:32:49;21.30;60.30
8103;DHT22;4094;49.948;11.574;2023-07-31T08:35:20;21.30;59.50
8103;DHT22;4094;49.948;11.574;2023-07-31T08:37:49;21.30;59.60
8103;DHT22;4094;49.948;11.574;2023-07-31T08:40:18;21.40;60.00
8103;DHT22;4094;49.948;11.574;2023-07-31T08:42:53;21.40;59.80
8103;DHT22;4094;49.948;11.574;2023-07-31T08:45:24;21.50;59.50
8103;DHT22;4094;49.948;11.574;2023-07-31T08:47:53;21.50;59.40
8103;DHT22;4094;49.948;11.574;2023-07-31T08:50:25;21.60;59.50
8103;DHT22;4094;49.948;11.574;2023-07-31T08:52:55;21.60;59.20
8103;DHT22;4094;49.948;11.574;2023-07-31T08:55:26;21.60;59.50
8103;DHT22;4094;49.948;11.574;2023-07-31T08:57:56;21.70;59.50
8103;DHT22;4094;49.948;11.574;2023-07-31T09:00:26;21.70;59.40
8103;DHT22;4094;49.948;11.574;2023-07-31T09:02:59;21.80;59.60
8103;DHT22;4094;49.948;11.574;2023-07-31T09:05:32;21.80;59.50
8103;DHT22;4094;49.948;11.574;2023-07-31T09:08:02;21.90;59.10
8103;DHT22;4094;49.948;11.574;2023-07-31T09:10:33;22.00;59.50
8103;DHT22;4094;49.948;11.574;2023-07-31T09:13:03;22.10;59.20
8103;DHT22;4094;49.948;11.574;2023-07-31T09:15:33;22.20;58.90
8103;DHT22;4094;49.948;11.574;2023-07-31T09:18:06;22.20;59.40
8103;DHT22;4094;49.948;11.574;2023-07-31T09:20:37;22.30;59.10
8103;DHT22;4094;49.948;11.574;2023-07-31T09:23:08;22.50;58.70
8103;DHT22;4094;49.948;11.574;2023-07-31T09:25:39;22.50;58.70
8103;DHT22;4094;49.948;11.574;2023-07-31T09:28:09;22.70;58.90
8103;DHT22;4094;49.948;11.574;2023-07-31T09:30:47;22.70;58.80
8103;DHT22;4094;49.948;11.574;2023-07-31T09:33:19;22.80;58.30
8103;DHT22;4094;49.948;11.574;2023-07-31T09:35:49;22.90;58.50
8103;DHT22;4094;49.948;11.574;2023-07-31T09:38:19;23.00;58.60
8103;DHT22;4094;49.948;11.574;2023-07-31T09:40:48;23.00;58.40
8103;DHT22;4094;49.948;11.574;2023-07-31T09:43:18;23.10;57.60
8103;DHT22;4094;49.948;11.574;2023-07-31T09:45:52;23.20;58.10
8103;DHT22;4094;49.948;11.574;2023-07-31T09:48:23;23.30;57.70
8103;DHT22;4094;49.948;11.574;2023-07-31T09:50:56;23.30;56.80
8103;DHT22;4094;49.948;11.574;2023-07-31T09:53:28;23.40;56.90
8103;DHT22;4094;49.948;11.574;2023-07-31T09:55:59;23.40;56.90
8103;DHT22;4094;49.948;11.574;2023-07-31T09:58:29;23.40;57.20
8103;DHT22;4094;49.948;11.574;2023-07-31T10:01:02;23.50;57.10
8103;DHT22;4094;49.948;11.574;2023-07-31T10:03:32;23.50;57.20
8103;DHT22;4094;49.948;11.574;2023-07-31T10:06:03;23.50;56.90
8103;DHT22;4094;49.948;11.574;2023-07-31T10:08:35;23.50;56.90
8103;DHT22;4094;49.948;11.574;2023-07-31T10:11:06;23.50;56.80
8103;DHT22;4094;49.948;11.574;2023-07-31T10:13:36;23.50;56.70
8103;DHT22;4094;49.948;11.574;2023-07-31T10:16:06;23.50;56.40
8103;DHT22;4094;49.948;11.574;2023-07-31T10:18:36;23.40;56.20
8103;DHT22;4094;49.948;11.574;2023-07-31T10:21:08;23.40;56.30
8103;DHT22;4094;49.948;11.574;2023-07-31T10:23:37;23.30;56.50
8103;DHT22;4094;49.948;11.574;2023-07-31T10:26:07;23.30;56.40
8103;DHT22;4094;49.948;11.574;2023-07-31T10:28:39;23.20;56.40
8103;DHT22;4094;49.948;11.574;2023-07-31T10:31:09;23.20;56.50
8103;DHT22;4094;49.948;11.574;2023-07-31T10:33:38;23.10;56.50
8103;DHT22;4094;49.948;11.574;2023-07-31T10:36:17;23.10;56.30
8103;DHT22;4094;49.948;11.574;2023-07-31T10:38:49;23.10;56.60
8103;DHT22;4094;49.948;11.574;2023-07-31T10:41:19;23.00;57.10
8103;DHT22;4094;49.948;11.574;2023-07-31T10:43:49;23.00;57.10
8103;DHT22;4094;49.948;11.574;2023-07-31T10:46:18;23.10;56.90
8103;DHT22;4094;49.948;11.574;2023-07-31T10:48:57;23.10;56.90
8103;DHT22;4094;49.948;11.574;2023-07-31T10:51:35;23.20;56.70
8103;DHT22;4094;49.948;11.574;2023-07-31T10:54:11;23.20;56.80
8103;DHT22;4094;49.948;11.574;2023-07-31T10:56:44;23.20;56.20
8103;DHT22;4094;49.948;11.574;2023-07-31T10:59:14;23.20;56.50
8103;DHT22;4094;49.948;11.574;2023-07-31T11:01:52;23.20;56.30
8103;DHT22;4094;49.948;11.574;2023-07-31T11:04:23;23.30;56.50
8103;DHT22;4094;49.948;11.574;2023-07-31T11:06:58;23.30;56.60
8103;DHT22;4094;49.948;11.574;2023-07-31T11:09:29;23.40;56.60
8103;DHT22;4094;49.948;11.574;2023-07-31T11:12:00;23.50;56.50
8103;DHT22;4094;49.948;11.574;2023-07-31T11:14:29;23.60;56.00
8103;DHT22;4094;49.948;11.574;2023-07-31T11:16:58;23.70;55.80
8103;DHT22;4094;49.948;11.574;2023-07-31T11:19:28;23.80;55.80
8103;DHT22;4094;49.948;11.574;2023-07-31T11:21:58;23.90;55.00
8103;DHT22;4094;49.948;11.574;2023-07-31T11:24:28;23.90;55.40
8103;DHT22;4094;49.948;11.574;2023-07-31T11:26:57;23.90;55.10
8103;DHT22;4094;49.948;11.574;2023-07-31T11:29:28;23.90;54.80
8103;DHT22;4094;49.948;11.574;2023-07-31T11:31:57;23.90;55.00
8103;DHT22;4094;49.948;11.574;2023-07-31T11:34:27;23.90;55.30
8103;DHT22;4094;49.948;11.574;2023-07-31T11:36:57;23.90;55.20
8103;DHT22;4094;49.948;11.574;2023-07-31T11:39:27;23.90;55.20
8103;DHT22;4094;49.948;11.574;2023-07-31T11:41:59;23.90;55.30
8103;DHT22;4094;49.948;11.574;2023-07-31T11:44:37;23.80;55.20
8103;DHT22;4094;49.948;11.574;2023-07-31T11:47:07;23.80;55.30
8103;DHT22;4094;49.948;11.574;2023-07-31T11:49:37;23.80;55.30
8103;DHT22;4094;49.948;11.574;2023-07-31T11:52:08;23.70;55.40
8103;DHT22;4094;49.948;11.574;2023-07-31T11:54:38;23.70;55.40
8103;DHT22;4094;49.948;11.574;2023-07-31T11:57:08;23.70;55.40
8103;DHT22;4094;49.948;11.574;2023-07-31T11:59:38;23.70;55.40
8103;DHT22;4094;49.948;11.574;2023-07-31T12:02:08;23.70;55.30
8103;DHT22;4094;49.948;11.574;2023-07-31T12:04:37;23.70;55.40
8103;DHT22;4094;49.948;11.574;2023-07-31T12:07:08;23.70;55.50
8103;DHT22;4094;49.948;11.574;2023-07-31T12:09:37;23.80;55.70
8103;DHT22;4094;49.948;11.574;2023-07-31T12:12:08;23.90;55.90
8103;DHT22;4094;49.948;11.574;2023-07-31T12:14:41;23.90;55.30
8103;DHT22;4094;49.948;11.574;2023-07-31T12:17:11;24.00;55.20
8103;DHT22;4094;49.948;11.574;2023-07-31T12:19:40;24.00;55.00
8103;DHT22;4094;49.948;11.574;2023-07-31T12:22:14;24.10;55.00
8103;DHT22;4094;49.948;11.574;2023-07-31T12:24:44;24.10;54.50
8103;DHT22;4094;49.948;11.574;2023-07-31T12:27:14;24.10;54.40
8103;DHT22;4094;49.948;11.574;2023-07-31T12:29:46;24.10;54.10
8103;DHT22;4094;49.948;11.574;2023-07-31T12:32:20;24.10;53.80
8103;DHT22;4094;49.948;11.574;2023-07-31T12:34:50;24.00;54.00
8103;DHT22;4094;49.948;11.574;2023-07-31T12:37:22;24.00;54.20
8103;DHT22;4094;49.948;11.574;2023-07-31T12:39:51;24.00;54.40
8103;DHT22;4094;49.948;11.574;2023-07-31T12:42:20;24.00;54.30
8103;DHT22;4094;49.948;11.574;2023-07-31T12:44:50;24.10;54.50
8103;DHT22;4094;49.948;11.574;2023-07-31T12:47:19;24.10;54.60
8103;DHT22;4094;49.948;11.574;2023-07-31T12:49:49;24.10;54.60
8103;DHT22;4094;49.948;11.574;2023-07-31T12:52:18;24.10;54.80
8103;DHT22;4094;49.948;11.574;2023-07-31T12:54:49;24.20;54.60
8103;DHT22;4094;49.948;11.574;2023-07-31T12:57:18;24.20;54.70
8103;DHT22;4094;49.948;11.574;2023-07-31T12:59:48;24.20;54.60
8103;DHT22;4094;49.948;11.574;2023-07-31T13:02:17;24.20;53.80
8103;DHT22;4094;49.948;11.574;2023-07-31T13:04:50;24.20;53.70
8103;DHT22;4094;49.948;11.574;2023-07-31T13:07:19;24.10;53.90
8103;DHT22;4094;49.948;11.574;2023-07-31T13:09:50;24.10;54.20
8103;DHT22;4094;49.948;11.574;2023-07-31T13:12:19;24.10;54.30
8103;DHT22;4094;49.948;11.574;2023-07-31T13:14:48;24.10;54.50
8103;DHT22;4094;49.948;11.574;2023-07-31T13:17:21;24.10;54.80
8103;DHT22;4094;49.948;11.574;2023-07-31T13:19:50;24.20;54.40
8103;DHT22;4094;49.948;11.574;2023-07-31T13:22:19;24.20;54.20
8103;DHT22;4094;49.948;11.574;2023-07-31T13:24:50;24.20;54.20
8103;DHT22;4094;49.948;11.574;2023-07-31T13:27:23;24.20;54.40
8103;DHT22;4094;49.948;11.574;2023-07-31T13:29:53;24.20;54.10
8103;DHT22;4094;49.948;11.574;2023-07-31T13:32:22;24.20;53.80
8103;DHT22;4094;49.948;11.574;2023-07-31T13:34:52;24.20;54.30
8103;DHT22;4094;49.948;11.574;2023-07-31T13:37:21;24.20;54.20
8103;DHT22;4094;49.948;11.574;2023-07-31T13:39:52;24.20;54.10
8103;DHT22;4094;49.948;11.574;2023-07-31T13:42:21;24.30;53.90
8103;DHT22;4094;49.948;11.574;2023-07-31T13:44:51;24.30;53.70
8103;DHT22;4094;49.948;11.574;2023-07-31T13:47:20;24.30;53.70
8103;DHT22;4094;49.948;11.574;2023-07-31T13:49:50;24.40;54.10
8103;DHT22;4094;49.948;11.574;2023-07-31T13:52:19;24.40;53.40
8103;DHT22;4094;49.948;11.574;2023-07-31T13:54:48;24.40;53.40
8103;DHT22;4094;49.948;11.574;2023-07-31T13:57:19;24.50;53.00
8103;DHT22;4094;49.948;11.574;2023-07-31T13:59:49;24.50;52.00
8103;DHT22;4094;49.948;11.574;2023-07-31T14:02:19;24.50;51.80
8103;DHT22;4094;49.948;11.574;2023-07-31T14:04:49;24.50;52.30
8103;DHT22;4094;49.948;11.574;2023-07-31T14:07:19;24.50;52.70
8103;DHT22;4094;49.948;11.574;2023-07-31T14:09:48;24.60;52.80
8103;DHT22;4094;49.948;11.574;2023-07-31T14:12:19;24.60;52.60
8103;DHT22;4094;49.948;11.574;2023-07-31T14:15:09;24.60;52.60
8103;DHT22;4094;49.948;11.574;2023-07-31T14:17:38;24.70;52.00
8103;DHT22;4094;49.948;11.574;2023-07-31T14:20:10;24.70;52.00
8103;DHT22;4094;49.948;11.574;2023-07-31T14:22:40;24.70;51.90
8103;DHT22;4094;49.948;11.574;2023-07-31T14:25:09;24.80;52.00
8103;DHT22;4094;49.948;11.574;2023-07-31T14:27:42;24.80;52.10
8103;DHT22;4094;49.948;11.574;2023-07-31T14:30:12;24.90;51.90
8103;DHT22;4094;49.948;11.574;2023-07-31T14:32:41;24.90;52.10
8103;DHT22;4094;49.948;11.574;2023-07-31T14:35:10;25.00;51.90
8103;DHT22;4094;49.948;11.574;2023-07-31T14:37:41;25.00;51.50
8103;DHT22;4094;49.948;11.574;2023-07-31T14:40:13;25.10;51.00
8103;DHT22;4094;49.948;11.574;2023-07-31T14:42:43;25.00;50.60
8103;DHT22;4094;49.948;11.574;2023-07-31T14:45:13;25.00;50.30
8103;DHT22;4094;49.948;11.574;2023-07-31T14:47:43;25.00;50.40
8103;DHT22;4094;49.948;11.574;2023-07-31T14:50:12;25.00;51.00
8103;DHT22;4094;49.948;11.574;2023-07-31T14:52:41;25.00;51.10
8103;DHT22;4094;49.948;11.574;2023-07-31T14:55:10;25.00;51.10
8103;DHT22;4094;49.948;11.574;2023-07-31T14:57:40;25.00;51.10
8103;DHT22;4094;49.948;11.574;2023-07-31T15:00:11;25.00;50.80
8103;DHT22;4094;49.948;11.574;2023-07-31T15:02:41;24.90;50.90
8103;DHT22;4094;49.948;11.574;2023-07-31T15:05:10;24.90;51.10
8103;DHT22;4094;49.948;11.574;2023-07-31T15:07:39;24.90;50.90
8103;DHT22;4094;49.948;11.574;2023-07-31T15:10:09;25.00;51.10
8103;DHT22;4094;49.948;11.574;2023-07-31T15:12:40;25.00;51.10
8103;DHT22;4094;49.948;11.574;2023-07-31T15:15:11;25.00;51.10
8103;DHT22;4094;49.948;11.574;2023-07-31T15:17:44;25.10;50.90
8103;DHT22;4094;49.948;11.574;2023-07-31T15:20:13;25.10;51.30
8103;DHT22;4094;49.948;11.574;2023-07-31T15:22:43;25.20;51.40
8103;DHT22;4094;49.948;11.574;2023-07-31T15:25:13;25.20;51.40
8103;DHT22;4094;49.948;11.574;2023-07-31T15:27:43;25.30;51.50
8103;DHT22;4094;49.948;11.574;2023-07-31T15:30:15;25.30;51.30
8103;DHT22;4094;49.948;11.574;2023-07-31T15:32:44;25.40;51.00
8103;DHT22;4094;49.948;11.574;2023-07-31T15:35:16;25.40;51.10
8103;DHT22;4094;49.948;11.574;2023-07-31T15:37:49;25.40;51.10
8103;DHT22;4094;49.948;11.574;2023-07-31T15:40:18;25.40;51.10
8103;DHT22;4094;49.948;11.574;2023-07-31T15:42:47;25.40;51.30
8103;DHT22;4094;49.948;11.574;2023-07-31T15:45:18;25.30;51.90
8103;DHT22;4094;49.948;11.574;2023-07-31T15:47:48;25.30;51.20
8103;DHT22;4094;49.948;11.574;2023-07-31T15:50:18;25.30;51.50
8103;DHT22;4094;49.948;11.574;2023-07-31T15:52:47;25.30;51.60
8103;DHT22;4094;49.948;11.574;2023-07-31T15:55:16;25.20;51.60
8103;DHT22;4094;49.948;11.574;2023-07-31T15:57:46;25.20;51.60
8103;DHT22;4094;49.948;11.574;2023-07-31T16:00:16;25.20;51.70
8103;DHT22;4094;49.948;11.574;2023-07-31T16:02:47;25.30;51.80